sensor_id;sensor_type;location;lat;lon;timestamp;P1;durP1;ratioP1;P2;durP2;ratioP2
11988;SDS011;6054;50.966;7.094;2024-01-30T00:02:14;6.65;;;5.00;;
11988;SDS011;6054;50.966;7.094;2024-01-30T00:04:53;9.82;;;5.68;;
11988;SDS011;6054;50.966;7.094;2024-01-30T00:07:21;7.57;;;5.68;;
11988;SDS011;6054;50.966;7.094;2024-01-30T00:09:58;8.38;;;5.43;;
11988;SDS011;6054;50.966;7.094;2024-01-30T00:12:35;8.38;;;5.72;;
11988;SDS011;6054;50.966;7.094;2024-01-30T00:15:04;7.65;;;5.13;;
11988;SDS011;6054;50.966;7.094;2024-01-30T00:17:35;7.13;;;5.15;;
11988;SDS011;6054;50.966;7.094;2024-01-30T00:20:09;8.70;;;5.50;;
11988;SDS011;6054;50.966;7.094;2024-01-30T00:22:36;8.60;;;6.00;;
11988;SDS011;6054;50.966;7.094;2024-01-30T00:25:20;10.75;;;5.43;;
11988;SDS011;6054;50.966;7.094;2024-01-30T00:27:56;8.10;;;5.60;;
11988;SDS011;6054;50.966;7.094;2024-01-30T00:30:29;8.20;;;5.10;;
11988;SDS011;6054;50.966;7.094;2024-01-30T00:33:04;7.50;;;5.50;;
11988;SDS011;6054;50.966;7.094;2024-01-30T00:35:34;8.75;;;4.85;;
11988;SDS011;6054;50.966;7.094;2024-01-30T00:38:06;7.90;;;5.70;;
11988;SDS011;6054;50.966;7.094;2024-01-30T00:40:38;8.82;;;5.53;;
11988;SDS011;6054;50.966;7.094;2024-01-30T00:43:10;8.68;;;5.53;;
11988;SDS011;6054;50.966;7.094;2024-01-30T00:45:40;6.18;;;5.03;;
11988;SDS011;6054;50.966;7.094;2024-01-30T00:48:25;8.52;;;5.68;;
11988;SDS011;6054;50.966;7.094;2024-01-30T00:51:19;6.75;;;5.50;;
11988;SDS011;6054;50.966;7.094;2024-01-30T00:54:03;7.35;;;5.00;;
11988;SDS011;6054;50.966;7.094;2024-01-30T00:56:36;8.13;;;5.60;;
11988;SDS011;6054;50.966;7.094;2024-01-30T00:59:05;9.38;;;5.57;;
11988;SDS011;6054;50.966;7.094;2024-01-30T01:01:35;8.38;;;5.38;;
11988;SDS011;6054;50.966;7.094;2024-01-30T01:04:08;6.07;;;5.10;;
11988;SDS011;6054;50.966;7.094;2024-01-30T01:06:37;7.45;;;5.40;;
11988;SDS011;6054;50.966;7.094;2024-01-30T01:09:10;7.63;;;5.75;;
11988;SDS011;6054;50.966;7.094;2024-01-30T01:11:45;7.72;;;5.78;;
11988;SDS011;6054;50.966;7.094;2024-01-30T01:14:14;8.05;;;5.65;;
11988;SDS011;6054;50.966;7.094;2024-01-30T01:16:41;7.55;;;5.15;;
11988;SDS011;6054;50.966;7.094;2024-01-30T01:19:07;7.50;;;5.07;;
11988;SDS011;6054;50.966;7.094;2024-01-30T01:21:35;9.48;;;5.50;;
11988;SDS011;6054;50.966;7.094;2024-01-30T01:24:04;9.13;;;6.07;;
11988;SDS011;6054;50.966;7.094;2024-01-30T01:26:35;7.72;;;5.50;;
11988;SDS011;6054;50.966;7.094;2024-01-30T01:34:55;11.40;;;5.55;;
11988;SDS011;6054;50.966;7.094;2024-01-30T01:37:42;6.22;;;5.47;;
11988;SDS011;6054;50.966;7.094;2024-01-30T01:40:22;6.43;;;5.13;;
11988;SDS011;6054;50.966;7.094;2024-01-30T01:42:52;7.80;;;5.05;;
11988;SDS011;6054;50.966;7.094;2024-01-30T01:45:21;7.70;;;5.40;;
11988;SDS011;6054;50.966;7.094;2024-01-30T01:48:01;9.23;;;5.80;;
11988;SDS011;6054;50.966;7.094;2024-01-30T01:50:53;7.40;;;5.55;;
11988;SDS011;6054;50.966;7.094;2024-01-30T01:53:29;7.95;;;5.25;;
11988;SDS011;6054;50.966;7.094;2024-01-30T01:56:06;5.88;;;4.65;;
11988;SDS011;6054;50.966;7.094;2024-01-30T01:58:35;9.25;;;6.10;;
11988;SDS011;6054;50.966;7.094;2024-01-30T02:01:03;9.50;;;5.88;;
11988;SDS011;6054;50.966;7.094;2024-01-30T02:03:35;8.50;;;5.03;;
11988;SDS011;6054;50.966;7.094;2024-01-30T02:06:03;9.90;;;5.18;;
11988;SDS011;6054;50.966;7.094;2024-01-30T02:08:30;7.68;;;4.93;;
11988;SDS011;6054;50.966;7.094;2024-01-30T02:10:58;7.47;;;5.03;;
11988;SDS011;6054;50.966;7.094;2024-01-30T02:13:26;10.45;;;5.53;;
11988;SDS011;6054;50.966;7.094;2024-01-30T02:15:57;12.35;;;5.80;;
11988;SDS011;6054;50.966;7.094;2024-01-30T02:18:42;10.88;;;5.60;;
11988;SDS011;6054;50.966;7.094;2024-01-30T02:21:20;7.50;;;5.57;;
11988;SDS011;6054;50.966;7.094;2024-01-30T02:23:52;8.80;;;5.78;;
11988;SDS011;6054;50.966;7.094;2024-01-30T02:26:30;7.25;;;5.43;;
11988;SDS011;6054;50.966;7.094;2024-01-30T02:28:58;7.55;;;5.20;;
11988;SDS011;6054;50.966;7.094;2024-01-30T02:31:26;7.65;;;5.10;;
11988;SDS011;6054;50.966;7.094;2024-01-30T02:33:55;9.02;;;5.15;;
11988;SDS011;6054;50.966;7.094;2024-01-30T02:36:31;10.23;;;5.20;;
11988;SDS011;6054;50.966;7.094;2024-01-30T02:39:01;8.38;;;5.30;;
11988;SDS011;6054;50.966;7.094;2024-01-30T02:41:30;7.10;;;4.65;;
11988;SDS011;6054;50.966;7.094;2024-01-30T02:43:58;9.75;;;5.63;;
11988;SDS011;6054;50.966;7.094;2024-01-30T02:46:27;7.75;;;5.40;;
11988;SDS011;6054;50.966;7.094;2024-01-30T02:48:56;7.45;;;4.63;;
11988;SDS011;6054;50.966;7.094;2024-01-30T02:51:23;9.55;;;5.00;;
11988;SDS011;6054;50.966;7.094;2024-01-30T02:53:52;6.63;;;4.93;;
11988;SDS011;6054;50.966;7.094;2024-01-30T02:56:21;6.15;;;4.90;;
11988;SDS011;6054;50.966;7.094;2024-01-30T02:58:48;8.80;;;4.93;;
11988;SDS011;6054;50.966;7.094;2024-01-30T03:01:16;6.43;;;4.97;;
11988;SDS011;6054;50.966;7.094;2024-01-30T03:03:43;7.63;;;4.90;;
11988;SDS011;6054;50.966;7.094;2024-01-30T03:06:10;7.50;;;5.40;;
11988;SDS011;6054;50.966;7.094;2024-01-30T03:08:39;7.97;;;4.65;;
11988;SDS011;6054;50.966;7.094;2024-01-30T03:27:48;6.60;;;4.88;;
11988;SDS011;6054;50.966;7.094;2024-01-30T03:30:20;8.38;;;4.88;;
11988;SDS011;6054;50.966;7.094;2024-01-30T03:32:49;7.07;;;5.05;;
11988;SDS011;6054;50.966;7.094;2024-01-30T03:35:18;9.77;;;4.82;;
11988;SDS011;6054;50.966;7.094;2024-01-30T03:37:53;6.20;;;4.38;;
11988;SDS011;6054;50.966;7.094;2024-01-30T03:40:34;10.98;;;5.07;;
11988;SDS011;6054;50.966;7.094;2024-01-30T03:43:22;8.55;;;5.25;;
11988;SDS011;6054;50.966;7.094;2024-01-30T03:45:49;5.32;;;4.28;;
11988;SDS011;6054;50.966;7.094;2024-01-30T03:48:16;8.52;;;5.13;;
11988;SDS011;6054;50.966;7.094;2024-01-30T03:50:47;7.63;;;4.25;;
11988;SDS011;6054;50.966;7.094;2024-01-30T03:53:21;5.32;;;4.40;;
11988;SDS011;6054;50.966;7.094;2024-01-30T03:55:53;6.60;;;4.82;;
11988;SDS011;6054;50.966;7.094;2024-01-30T03:58:28;6.38;;;4.70;;
11988;SDS011;6054;50.966;7.094;2024-01-30T04:01:03;9.43;;;4.78;;
11988;SDS011;6054;50.966;7.094;2024-01-30T04:03:33;7.25;;;4.88;;
11988;SDS011;6054;50.966;7.094;2024-01-30T04:06:03;5.55;;;4.30;;
11988;SDS011;6054;50.966;7.094;2024-01-30T04:08:33;9.23;;;5.03;;
11988;SDS011;6054;50.966;7.094;2024-01-30T04:11:07;7.68;;;4.47;;
11988;SDS011;6054;50.966;7.094;2024-01-30T04:13:48;7.78;;;4.70;;
11988;SDS011;6054;50.966;7.094;2024-01-30T04:16:25;8.02;;;5.00;;
11988;SDS011;6054;50.966;7.094;2024-01-30T04:19:01;6.50;;;4.65;;
11988;SDS011;6054;50.966;7.094;2024-01-30T04:21:28;8.18;;;4.55;;
11988;SDS011;6054;50.966;7.094;2024-01-30T04:23:58;8.60;;;4.95;;
11988;SDS011;6054;50.966;7.094;2024-01-30T04:26:45;5.10;;;4.43;;
11988;SDS011;6054;50.966;7.094;2024-01-30T04:29:14;5.20;;;4.32;;
11988;SDS011;6054;50.966;7.094;2024-01-30T04:31:42;5.55;;;4.22;;
11988;SDS011;6054;50.966;7.094;2024-01-30T04:34:11;6.25;;;4.47;;
11988;SDS011;6054;50.966;7.094;2024-01-30T04:36:43;6.72;;;3.88;;
11988;SDS011;6054;50.966;7.094;2024-01-30T04:39:11;8.43;;;4.40;;
11988;SDS011;6054;50.966;7.094;2024-01-30T04:41:38;5.57;;;3.85;;
11988;SDS011;6054;50.966;7.094;2024-01-30T04:44:10;4.28;;;3.88;;
11988;SDS011;6054;50.966;7.094;2024-01-30T04:46:42;6.85;;;4.35;;
11988;SDS011;6054;50.966;7.094;2024-01-30T04:49:16;8.30;;;4.50;;
11988;SDS011;6054;50.966;7.094;2024-01-30T04:51:45;5.05;;;4.00;;
11988;SDS011;6054;50.966;7.094;2024-01-30T04:54:14;9.57;;;4.68;;
11988;SDS011;6054;50.966;7.094;2024-01-30T04:56:42;8.10;;;4.30;;
11988;SDS011;6054;50.966;7.094;2024-01-30T04:59:11;5.38;;;4.22;;
11988;SDS011;6054;50.966;7.094;2024-01-30T05:01:50;6.10;;;4.30;;
11988;SDS011;6054;50.966;7.094;2024-01-30T05:04:18;8.00;;;4.43;;
11988;SDS011;6054;50.966;7.094;2024-01-30T05:06:54;5.97;;;4.00;;
11988;SDS011;6054;50.966;7.094;2024-01-30T05:09:25;7.25;;;3.90;;
11988;SDS011;6054;50.966;7.094;2024-01-30T05:11:52;6.63;;;3.95;;
11988;SDS011;6054;50.966;7.094;2024-01-30T05:14:20;7.15;;;4.22;;
11988;SDS011;6054;50.966;7.094;2024-01-30T05:16:58;5.57;;;4.18;;
11988;SDS011;6054;50.966;7.094;2024-01-30T05:19:27;7.53;;;4.15;;
11988;SDS011;6054;50.966;7.094;2024-01-30T05:21:59;4.95;;;3.83;;
11988;SDS011;6054;50.966;7.094;2024-01-30T05:24:33;6.57;;;4.53;;
11988;SDS011;6054;50.966;7.094;2024-01-30T05:27:01;6.88;;;4.53;;
11988;SDS011;6054;50.966;7.094;2024-01-30T05:29:30;6.15;;;4.32;;
11988;SDS011;6054;50.966;7.094;2024-01-30T05:32:08;5.97;;;4.60;;
11988;SDS011;6054;50.966;7.094;2024-01-30T05:34:38;5.53;;;4.15;;
11988;SDS011;6054;50.966;7.094;2024-01-30T05:37:20;9.85;;;4.70;;
11988;SDS011;6054;50.966;7.094;2024-01-30T05:39:51;7.05;;;4.43;;
11988;SDS011;6054;50.966;7.094;2024-01-30T05:42:21;7.72;;;4.57;;
11988;SDS011;6054;50.966;7.094;2024-01-30T05:45:15;6.43;;;3.80;;
11988;SDS011;6054;50.966;7.094;2024-01-30T05:47:55;5.50;;;4.07;;
11988;SDS011;6054;50.966;7.094;2024-01-30T05:50:29;5.90;;;3.70;;
11988;SDS011;6054;50.966;7.094;2024-01-30T05:53:05;4.35;;;3.85;;
11988;SDS011;6054;50.966;7.094;2024-01-30T05:55:33;5.13;;;4.30;;
11988;SDS011;6054;50.966;7.094;2024-01-30T05:58:00;7.82;;;4.53;;
11988;SDS011;6054;50.966;7.094;2024-01-30T06:00:36;7.28;;;4.38;;
11988;SDS011;6054;50.966;7.094;2024-01-30T06:03:13;6.13;;;4.53;;
11988;SDS011;6054;50.966;7.094;2024-01-30T06:05:40;4.50;;;3.90;;
11988;SDS011;6054;50.966;7.094;2024-01-30T06:08:09;4.57;;;4.18;;
11988;SDS011;6054;50.966;7.094;2024-01-30T06:10:37;7.03;;;4.18;;
11988;SDS011;6054;50.966;7.094;2024-01-30T06:13:04;6.30;;;4.38;;
11988;SDS011;6054;50.966;7.094;2024-01-30T06:15:34;8.93;;;4.55;;
11988;SDS011;6054;50.966;7.094;2024-01-30T06:18:01;8.10;;;5.20;;
11988;SDS011;6054;50.966;7.094;2024-01-30T06:20:34;6.47;;;4.43;;
11988;SDS011;6054;50.966;7.094;2024-01-30T06:23:04;6.45;;;4.32;;
11988;SDS011;6054;50.966;7.094;2024-01-30T06:25:33;7.63;;;4.25;;
11988;SDS011;6054;50.966;7.094;2024-01-30T06:28:02;5.68;;;4.38;;
11988;SDS011;6054;50.966;7.094;2024-01-30T06:30:47;6.40;;;4.50;;
11988;SDS011;6054;50.966;7.094;2024-01-30T06:36:44;7.45;;;4.40;;
11988;SDS011;6054;50.966;7.094;2024-01-30T06:39:11;6.18;;;4.03;;
11988;SDS011;6054;50.966;7.094;2024-01-30T06:41:41;4.28;;;3.42;;
11988;SDS011;6054;50.966;7.094;2024-01-30T06:44:14;8.02;;;4.40;;
11988;SDS011;6054;50.966;7.094;2024-01-30T06:46:42;8.23;;;4.55;;
11988;SDS011;6054;50.966;7.094;2024-01-30T06:49:12;8.05;;;4.60;;
11988;SDS011;6054;50.966;7.094;2024-01-30T06:51:44;7.97;;;4.13;;
11988;SDS011;6054;50.966;7.094;2024-01-30T06:54:34;7.00;;;4.18;;
11988;SDS011;6054;50.966;7.094;2024-01-30T06:57:21;7.32;;;4.00;;
11988;SDS011;6054;50.966;7.094;2024-01-30T07:00:09;6.53;;;4.43;;
11988;SDS011;6054;50.966;7.094;2024-01-30T07:02:40;6.18;;;4.32;;
11988;SDS011;6054;50.966;7.094;2024-01-30T07:05:12;5.00;;;4.47;;
11988;SDS011;6054;50.966;7.094;2024-01-30T07:08:04;6.20;;;4.35;;
11988;SDS011;6054;50.966;7.094;2024-01-30T07:10:35;5.95;;;4.20;;
11988;SDS011;6054;50.966;7.094;2024-01-30T07:13:04;5.18;;;4.57;;
11988;SDS011;6054;50.966;7.094;2024-01-30T07:15:35;7.50;;;4.25;;
11988;SDS011;6054;50.966;7.094;2024-01-30T07:18:06;5.97;;;4.28;;
11988;SDS011;6054;50.966;7.094;2024-01-30T07:20:38;7.22;;;4.13;;
11988;SDS011;6054;50.966;7.094;2024-01-30T07:23:13;6.47;;;4.10;;
11988;SDS011;6054;50.966;7.094;2024-01-30T07:25:42;7.90;;;4.05;;
11988;SDS011;6054;50.966;7.094;2024-01-30T07:28:14;7.70;;;4.60;;
11988;SDS011;6054;50.966;7.094;2024-01-30T07:30:42;7.53;;;4.70;;
11988;SDS011;6054;50.966;7.094;2024-01-30T07:33:12;5.38;;;3.65;;
11988;SDS011;6054;50.966;7.094;2024-01-30T07:35:40;6.75;;;4.18;;
11988;SDS011;6054;50.966;7.094;2024-01-30T07:38:08;6.07;;;4.28;;
11988;SDS011;6054;50.966;7.094;2024-01-30T07:40:40;6.43;;;4.00;;
11988;SDS011;6054;50.966;7.094;2024-01-30T07:43:09;8.73;;;4.88;;
11988;SDS011;6054;50.966;7.094;2024-01-30T07:45:54;7.78;;;4.05;;
11988;SDS011;6054;50.966;7.094;2024-01-30T07:48:22;6.47;;;4.55;;
11988;SDS011;6054;50.966;7.094;2024-01-30T07:50:52;6.28;;;4.60;;
11988;SDS011;6054;50.966;7.094;2024-01-30T07:53:19;9.43;;;4.68;;
11988;SDS011;6054;50.966;7.094;2024-01-30T07:55:58;7.70;;;4.85;;
11988;SDS011;6054;50.966;7.094;2024-01-30T07:58:26;6.95;;;4.75;;
11988;SDS011;6054;50.966;7.094;2024-01-30T08:00:58;6.97;;;4.72;;
11988;SDS011;6054;50.966;7.094;2024-01-30T08:03:26;5.85;;;4.63;;
11988;SDS011;6054;50.966;7.094;2024-01-30T08:05:54;4.60;;;4.10;;
11988;SDS011;6054;50.966;7.094;2024-01-30T08:08:25;7.28;;;4.38;;
11988;SDS011;6054;50.966;7.094;2024-01-30T08:10:57;9.70;;;4.82;;
11988;SDS011;6054;50.966;7.094;2024-01-30T08:13:27;6.00;;;4.18;;
11988;SDS011;6054;50.966;7.094;2024-01-30T08:15:54;8.90;;;4.80;;
11988;SDS011;6054;50.966;7.094;2024-01-30T08:18:23;7.90;;;4.13;;
11988;SDS011;6054;50.966;7.094;2024-01-30T08:20:51;7.43;;;4.88;;
11988;SDS011;6054;50.966;7.094;2024-01-30T08:23:24;9.18;;;4.40;;
11988;SDS011;6054;50.966;7.094;2024-01-30T08:25:52;7.43;;;4.70;;
11988;SDS011;6054;50.966;7.094;2024-01-30T08:28:37;6.70;;;4.57;;
11988;SDS011;6054;50.966;7.094;2024-01-30T08:31:06;5.68;;;4.70;;
11988;SDS011;6054;50.966;7.094;2024-01-30T08:33:41;8.38;;;4.85;;
11988;SDS011;6054;50.966;7.094;2024-01-30T08:36:15;6.72;;;4.43;;
11988;SDS011;6054;50.966;7.094;2024-01-30T08:38:43;10.40;;;5.93;;
11988;SDS011;6054;50.966;7.094;2024-01-30T08:41:12;4.80;;;4.18;;
11988;SDS011;6054;50.966;7.094;2024-01-30T08:43:44;6.50;;;4.82;;
11988;SDS011;6054;50.966;7.094;2024-01-30T08:46:17;5.78;;;4.25;;
11988;SDS011;6054;50.966;7.094;2024-01-30T08:48:46;5.10;;;3.83;;
11988;SDS011;6054;50.966;7.094;2024-01-30T08:51:16;5.85;;;4.47;;
11988;SDS011;6054;50.966;7.094;2024-01-30T08:53:45;6.90;;;4.32;;
11988;SDS011;6054;50.966;7.094;2024-01-30T08:56:12;7.35;;;4.35;;
11988;SDS011;6054;50.966;7.094;2024-01-30T08:58:43;6.30;;;4.32;;
11988;SDS011;6054;50.966;7.094;2024-01-30T09:01:10;8.05;;;4.85;;
11988;SDS011;6054;50.966;7.094;2024-01-30T09:03:38;6.68;;;4.22;;
11988;SDS011;6054;50.966;7.094;2024-01-30T09:06:07;6.65;;;4.40;;
11988;SDS011;6054;50.966;7.094;2024-01-30T09:08:34;7.07;;;4.47;;
11988;SDS011;6054;50.966;7.094;2024-01-30T09:11:02;5.40;;;4.05;;
11988;SDS011;6054;50.966;7.094;2024-01-30T09:13:37;8.00;;;4.22;;
11988;SDS011;6054;50.966;7.094;2024-01-30T09:16:06;7.40;;;4.38;;
11988;SDS011;6054;50.966;7.094;2024-01-30T09:18:33;6.70;;;4.22;;
11988;SDS011;6054;50.966;7.094;2024-01-30T09:21:07;6.57;;;4.50;;
11988;SDS011;6054;50.966;7.094;2024-01-30T09:23:35;6.00;;;4.30;;
11988;SDS011;6054;50.966;7.094;2024-01-30T09:26:02;6.72;;;4.05;;
11988;SDS011;6054;50.966;7.094;2024-01-30T09:28:30;6.30;;;4.05;;
11988;SDS011;6054;50.966;7.094;2024-01-30T09:30:57;5.47;;;4.32;;
11988;SDS011;6054;50.966;7.094;2024-01-30T09:33:34;8.35;;;4.22;;
11988;SDS011;6054;50.966;7.094;2024-01-30T09:36:08;7.93;;;4.40;;
11988;SDS011;6054;50.966;7.094;2024-01-30T09:38:44;8.38;;;4.32;;
11988;SDS011;6054;50.966;7.094;2024-01-30T09:41:14;8.38;;;4.15;;
11988;SDS011;6054;50.966;7.094;2024-01-30T09:43:44;7.20;;;4.82;;
11988;SDS011;6054;50.966;7.094;2024-01-30T09:46:16;9.07;;;4.18;;
11988;SDS011;6054;50.966;7.094;2024-01-30T09:49:00;4.95;;;4.10;;
11988;SDS011;6054;50.966;7.094;2024-01-30T09:51:29;6.90;;;4.57;;
11988;SDS011;6054;50.966;7.094;2024-01-30T09:53:57;5.72;;;3.88;;
11988;SDS011;6054;50.966;7.094;2024-01-30T09:56:27;10.05;;;4.65;;
11988;SDS011;6054;50.966;7.094;2024-01-30T09:59:00;6.65;;;4.20;;
11988;SDS011;6054;50.966;7.094;2024-01-30T10:01:28;7.90;;;4.05;;
11988;SDS011;6054;50.966;7.094;2024-01-30T10:03:56;6.03;;;4.40;;
11988;SDS011;6054;50.966;7.094;2024-01-30T10:06:27;6.10;;;4.47;;
11988;SDS011;6054;50.966;7.094;2024-01-30T10:08:56;6.95;;;4.30;;
11988;SDS011;6054;50.966;7.094;2024-01-30T10:11:24;7.00;;;4.90;;
11988;SDS011;6054;50.966;7.094;2024-01-30T10:13:51;5.20;;;4.13;;
11988;SDS011;6054;50.966;7.094;2024-01-30T10:16:19;5.93;;;4.10;;
11988;SDS011;6054;50.966;7.094;2024-01-30T10:18:46;5.82;;;4.60;;
11988;SDS011;6054;50.966;7.094;2024-01-30T10:21:16;6.78;;;4.38;;
11988;SDS011;6054;50.966;7.094;2024-01-30T10:23:46;5.47;;;4.07;;
11988;SDS011;6054;50.966;7.094;2024-01-30T10:26:17;5.88;;;4.57;;
11988;SDS011;6054;50.966;7.094;2024-01-30T10:28:44;6.30;;;4.32;;
11988;SDS011;6054;50.966;7.094;2024-01-30T10:31:16;7.90;;;3.92;;
11988;SDS011;6054;50.966;7.094;2024-01-30T10:33:43;5.47;;;4.05;;
11988;SDS011;6054;50.966;7.094;2024-01-30T10:36:13;8.43;;;4.78;;
11988;SDS011;6054;50.966;7.094;2024-01-30T10:38:48;7.95;;;4.05;;
11988;SDS011;6054;50.966;7.094;2024-01-30T10:41:22;5.65;;;4.30;;
11988;SDS011;6054;50.966;7.094;2024-01-30T10:43:55;8.18;;;4.80;;
11988;SDS011;6054;50.966;7.094;2024-01-30T10:46:29;6.35;;;4.50;;
11988;SDS011;6054;50.966;7.094;2024-01-30T10:48:59;6.85;;;4.35;;
11988;SDS011;6054;50.966;7.094;2024-01-30T10:51:27;4.95;;;4.03;;
11988;SDS011;6054;50.966;7.094;2024-01-30T10:53:57;11.38;;;4.78;;
11988;SDS011;6054;50.966;7.094;2024-01-30T10:56:27;7.13;;;4.13;;
11988;SDS011;6054;50.966;7.094;2024-01-30T10:58:56;4.55;;;3.95;;
11988;SDS011;6054;50.966;7.094;2024-01-30T11:01:27;6.40;;;4.00;;
11988;SDS011;6054;50.966;7.094;2024-01-30T11:03:55;8.00;;;4.43;;
11988;SDS011;6054;50.966;7.094;2024-01-30T11:06:24;5.75;;;3.75;;
11988;SDS011;6054;50.966;7.094;2024-01-30T11:09:10;13.88;;;4.57;;
11988;SDS011;6054;50.966;7.094;2024-01-30T11:11:49;9.98;;;5.07;;
11988;SDS011;6054;50.966;7.094;2024-01-30T11:14:22;5.88;;;4.00;;
11988;SDS011;6054;50.966;7.094;2024-01-30T11:17:08;9.65;;;4.50;;
11988;SDS011;6054;50.966;7.094;2024-01-30T11:19:52;7.32;;;4.25;;
11988;SDS011;6054;50.966;7.094;2024-01-30T11:25:47;8.80;;;4.55;;
11988;SDS011;6054;50.966;7.094;2024-01-30T11:28:31;7.25;;;4.20;;
11988;SDS011;6054;50.966;7.094;2024-01-30T11:31:06;8.23;;;4.05;;
11988;SDS011;6054;50.966;7.094;2024-01-30T11:33:41;5.10;;;4.60;;
11988;SDS011;6054;50.966;7.094;2024-01-30T11:36:11;8.32;;;4.35;;
11988;SDS011;6054;50.966;7.094;2024-01-30T11:38:51;4.53;;;3.63;;
11988;SDS011;6054;50.966;7.094;2024-01-30T11:41:27;8.30;;;4.47;;
11988;SDS011;6054;50.966;7.094;2024-01-30T11:43:56;4.38;;;3.70;;
11988;SDS011;6054;50.966;7.094;2024-01-30T11:46:26;4.82;;;4.25;;
11988;SDS011;6054;50.966;7.094;2024-01-30T11:48:53;6.55;;;4.22;;
11988;SDS011;6054;50.966;7.094;2024-01-30T11:51:30;9.10;;;4.32;;
11988;SDS011;6054;50.966;7.094;2024-01-30T11:53:59;8.13;;;4.47;;
11988;SDS011;6054;50.966;7.094;2024-01-30T11:56:36;5.30;;;3.85;;
11988;SDS011;6054;50.966;7.094;2024-01-30T11:59:19;7.13;;;4.07;;
11988;SDS011;6054;50.966;7.094;2024-01-30T12:01:48;5.40;;;3.97;;
11988;SDS011;6054;50.966;7.094;2024-01-30T12:04:19;5.15;;;3.88;;
11988;SDS011;6054;50.966;7.094;2024-01-30T12:07:00;4.78;;;3.95;;
11988;SDS011;6054;50.966;7.094;2024-01-30T12:09:33;7.60;;;3.67;;
11988;SDS011;6054;50.966;7.094;2024-01-30T12:12:12;4.47;;;3.80;;
11988;SDS011;6054;50.966;7.094;2024-01-30T12:14:43;3.78;;;3.28;;
11988;SDS011;6054;50.966;7.094;2024-01-30T12:17:26;6.20;;;3.63;;
11988;SDS011;6054;50.966;7.094;2024-01-30T12:20:02;4.68;;;3.92;;
11988;SDS011;6054;50.966;7.094;2024-01-30T12:22:31;5.80;;;3.50;;
11988;SDS011;6054;50.966;7.094;2024-01-30T12:25:00;4.60;;;3.35;;
11988;SDS011;6054;50.966;7.094;2024-01-30T12:27:28;7.15;;;3.67;;
11988;SDS011;6054;50.966;7.094;2024-01-30T12:29:55;4.82;;;3.78;;
11988;SDS011;6054;50.966;7.094;2024-01-30T12:32:24;7.38;;;3.70;;
11988;SDS011;6054;50.966;7.094;2024-01-30T12:34:54;7.50;;;4.10;;
11988;SDS011;6054;50.966;7.094;2024-01-30T12:37:22;5.22;;;3.78;;
11988;SDS011;6054;50.966;7.094;2024-01-30T12:39:51;5.30;;;4.03;;
11988;SDS011;6054;50.966;7.094;2024-01-30T12:42:26;7.13;;;4.15;;
11988;SDS011;6054;50.966;7.094;2024-01-30T12:45:01;6.53;;;3.88;;
11988;SDS011;6054;50.966;7.094;2024-01-30T12:47:29;9.48;;;3.88;;
11988;SDS011;6054;50.966;7.094;2024-01-30T12:49:57;5.22;;;4.72;;
11988;SDS011;6054;50.966;7.094;2024-01-30T12:52:25;11.07;;;4.32;;
11988;SDS011;6054;50.966;7.094;2024-01-30T12:54:53;4.55;;;3.70;;
11988;SDS011;6054;50.966;7.094;2024-01-30T12:57:20;6.18;;;3.95;;
11988;SDS011;6054;50.966;7.094;2024-01-30T12:59:49;5.18;;;3.28;;
11988;SDS011;6054;50.966;7.094;2024-01-30T13:02:16;5.60;;;3.42;;
11988;SDS011;6054;50.966;7.094;2024-01-30T13:04:43;6.47;;;3.90;;
11988;SDS011;6054;50.966;7.094;2024-01-30T13:07:12;3.88;;;3.50;;
11988;SDS011;6054;50.966;7.094;2024-01-30T13:09:48;8.63;;;4.05;;
11988;SDS011;6054;50.966;7.094;2024-01-30T13:15:11;6.05;;;4.22;;
11988;SDS011;6054;50.966;7.094;2024-01-30T13:20:44;6.72;;;3.80;;
11988;SDS011;6054;50.966;7.094;2024-01-30T13:23:28;6.93;;;3.92;;
11988;SDS011;6054;50.966;7.094;2024-01-30T13:28:53;4.88;;;4.22;;
11988;SDS011;6054;50.966;7.094;2024-01-30T13:31:25;5.13;;;3.70;;
11988;SDS011;6054;50.966;7.094;2024-01-30T13:33:56;6.22;;;4.20;;
11988;SDS011;6054;50.966;7.094;2024-01-30T13:45:36;8.25;;;4.75;;
11988;SDS011;6054;50.966;7.094;2024-01-30T13:48:13;7.88;;;4.65;;
11988;SDS011;6054;50.966;7.094;2024-01-30T13:51:21;10.55;;;5.10;;
11988;SDS011;6054;50.966;7.094;2024-01-30T13:56:29;13.70;;;4.88;;
11988;SDS011;6054;50.966;7.094;2024-01-30T13:59:05;6.95;;;4.55;;
11988;SDS011;6054;50.966;7.094;2024-01-30T14:02:00;9.13;;;4.63;;
11988;SDS011;6054;50.966;7.094;2024-01-30T14:32:26;10.13;;;3.65;;
11988;SDS011;6054;50.966;7.094;2024-01-30T14:37:23;7.88;;;4.15;;
11988;SDS011;6054;50.966;7.094;2024-01-30T14:46:06;6.55;;;3.63;;
11988;SDS011;6054;50.966;7.094;2024-01-30T14:48:40;5.57;;;3.63;;
11988;SDS011;6054;50.966;7.094;2024-01-30T14:51:09;4.38;;;3.22;;
11988;SDS011;6054;50.966;7.094;2024-01-30T14:53:36;9.35;;;4.10;;
11988;SDS011;6054;50.966;7.094;2024-01-30T14:56:04;9.77;;;4.25;;
11988;SDS011;6054;50.966;7.094;2024-01-30T14:58:39;4.85;;;3.88;;
11988;SDS011;6054;50.966;7.094;2024-01-30T15:01:16;9.48;;;4.15;;
11988;SDS011;6054;50.966;7.094;2024-01-30T15:50:46;6.97;;;3.65;;
11988;SDS011;6054;50.966;7.094;2024-01-30T15:58:40;11.98;;;4.00;;
11988;SDS011;6054;50.966;7.094;2024-01-30T16:01:14;6.40;;;4.30;;
11988;SDS011;6054;50.966;7.094;2024-01-30T16:03:41;6.78;;;4.15;;
11988;SDS011;6054;50.966;7.094;2024-01-30T16:06:38;9.55;;;3.95;;
11988;SDS011;6054;50.966;7.094;2024-01-30T16:09:07;7.10;;;4.10;;
11988;SDS011;6054;50.966;7.094;2024-01-30T16:11:35;7.97;;;4.60;;
11988;SDS011;6054;50.966;7.094;2024-01-30T16:14:03;7.75;;;4.50;;
11988;SDS011;6054;50.966;7.094;2024-01-30T16:16:31;8.40;;;4.75;;
11988;SDS011;6054;50.966;7.094;2024-01-30T16:19:00;11.63;;;5.43;;
11988;SDS011;6054;50.966;7.094;2024-01-30T16:21:33;11.48;;;5.57;;
11988;SDS011;6054;50.966;7.094;2024-01-30T16:24:01;7.60;;;5.00;;
11988;SDS011;6054;50.966;7.094;2024-01-30T16:26:31;10.93;;;4.32;;
11988;SDS011;6054;50.966;7.094;2024-01-30T16:28:57;8.07;;;4.55;;
11988;SDS011;6054;50.966;7.094;2024-01-30T16:31:26;4.90;;;3.67;;
11988;SDS011;6054;50.966;7.094;2024-01-30T16:34:11;6.80;;;3.47;;
11988;SDS011;6054;50.966;7.094;2024-01-30T16:39:28;8.07;;;3.70;;
11988;SDS011;6054;50.966;7.094;2024-01-30T16:42:01;6.88;;;3.28;;
11988;SDS011;6054;50.966;7.094;2024-01-30T16:44:38;6.55;;;3.15;;
11988;SDS011;6054;50.966;7.094;2024-01-30T16:47:13;4.65;;;2.58;;
11988;SDS011;6054;50.966;7.094;2024-01-30T16:49:54;5.80;;;2.65;;
11988;SDS011;6054;50.966;7.094;2024-01-30T16:52:38;4.65;;;1.98;;
11988;SDS011;6054;50.966;7.094;2024-01-30T16:55:07;4.60;;;2.22;;
11988;SDS011;6054;50.966;7.094;2024-01-30T16:57:34;5.72;;;1.70;;
11988;SDS011;6054;50.966;7.094;2024-01-30T17:00:07;4.72;;;1.95;;
11988;SDS011;6054;50.966;7.094;2024-01-30T17:02:36;1.75;;;1.60;;
11988;SDS011;6054;50.966;7.094;2024-01-30T17:05:06;2.50;;;1.70;;
11988;SDS011;6054;50.966;7.094;2024-01-30T17:07:34;3.50;;;1.55;;
11988;SDS011;6054;50.966;7.094;2024-01-30T17:10:10;2.05;;;1.42;;
11988;SDS011;6054;50.966;7.094;2024-01-30T17:12:43;2.80;;;1.25;;
11988;SDS011;6054;50.966;7.094;2024-01-30T17:15:11;4.22;;;1.67;;
11988;SDS011;6054;50.966;7.094;2024-01-30T17:17:40;3.25;;;1.60;;
11988;SDS011;6054;50.966;7.094;2024-01-30T17:20:11;2.75;;;1.23;;
11988;SDS011;6054;50.966;7.094;2024-01-30T17:22:46;2.33;;;1.23;;
11988;SDS011;6054;50.966;7.094;2024-01-30T17:25:16;3.17;;;1.27;;
11988;SDS011;6054;50.966;7.094;2024-01-30T17:27:44;1.75;;;1.35;;
11988;SDS011;6054;50.966;7.094;2024-01-30T17:30:22;1.85;;;1.15;;
11988;SDS011;6054;50.966;7.094;2024-01-30T17:32:50;1.35;;;1.25;;
11988;SDS011;6054;50.966;7.094;2024-01-30T17:35:28;1.33;;;0.98;;
11988;SDS011;6054;50.966;7.094;2024-01-30T17:39:11;3.00;;;1.10;;
11988;SDS011;6054;50.966;7.094;2024-01-30T17:40:59;2.85;;;0.90;;
11988;SDS011;6054;50.966;7.094;2024-01-30T17:43:28;3.60;;;0.93;;
11988;SDS011;6054;50.966;7.094;2024-01-30T17:45:56;1.13;;;0.90;;
11988;SDS011;6054;50.966;7.094;2024-01-30T17:48:43;2.15;;;1.00;;
11988;SDS011;6054;50.966;7.094;2024-01-30T17:51:15;1.77;;;1.13;;
11988;SDS011;6054;50.966;7.094;2024-01-30T17:53:56;2.28;;;1.20;;